CheckWX is a tool to help pilots better visualize weather data.  It is not intended as a substitute for an official pre-flight weather briefing.

19:55:42 UTC

LFSL TAF
Brive–Souillac Airport
Brive-la-Gaillarde, France
TAF LFSL 251400Z 2515/2524 VRB03KT CAVOK BECMG 2520/2522 11006KT

Jun-25@
15:00 UTC

Jun-25 @ 15:00 UTC

Jun-25@
20:00 UTC

Jun-25 @ 20:00 UTC

TAF LFSL 251400Z 2515/2524 VRB03KT CAVOK
Wind
  • Variable at 3 KTS
Conditions
No significant weather
Cloud Levels
  • No significant clouds

Jun-25@
20:00 UTC

Jun-25 @ 20:00 UTC

Jun-26@
00:00 UTC

Jun-26 @ 00:00 UTC

BECMG 2520/2522 11006KT

Becoming

Becoming Conditions expected by Tue, Jun 25, 2019 @ 22:00 UTC

Wind
  • 110° at 6 KTS
Conditions
No significant weather
Cloud Levels
  • No significant clouds